createdAt,value
2019-04-27T00:01:40.627Z,10.50
2019-04-27T00:04:27.395Z,10.60
2019-04-27T00:07:00.747Z,10.60
2019-04-27T00:09:34.343Z,10.60
2019-04-27T00:12:07.659Z,10.60
2019-04-27T00:14:38.059Z,10.60
2019-04-27T00:17:45.862Z,10.60
2019-04-27T00:20:28.584Z,10.60
2019-04-27T00:23:01.082Z,10.60
2019-04-27T00:25:30.871Z,10.50
2019-04-27T00:28:00.749Z,10.50
2019-04-27T00:30:30.388Z,10.40
2019-04-27T00:33:00.098Z,10.40
2019-04-27T00:35:35.487Z,10.40
2019-04-27T00:38:27.112Z,10.30
2019-04-27T00:41:05.427Z,10.30
2019-04-27T00:43:35.070Z,10.30
2019-04-27T00:46:04.595Z,10.40
2019-04-27T00:48:34.169Z,10.30
2019-04-27T00:51:04.292Z,10.30
2019-04-27T00:53:33.961Z,10.30
2019-04-27T00:56:28.733Z,10.30
2019-04-27T00:58:57.278Z,10.30
2019-04-27T01:01:33.359Z,10.40
2019-04-27T01:04:06.783Z,10.50
2019-04-27T01:06:36.483Z,10.50
2019-04-27T01:09:08.755Z,10.60
2019-04-27T01:11:38.328Z,10.50
2019-04-27T01:14:07.869Z,10.50
2019-04-27T01:16:39.123Z,10.60
2019-04-27T01:19:10.362Z,10.50
2019-04-27T01:21:40.172Z,10.60
2019-04-27T01:24:11.732Z,10.60
2019-04-27T01:26:58.304Z,10.50
2019-04-27T01:29:29.141Z,10.50
2019-04-27T01:31:58.947Z,10.50
2019-04-27T01:34:29.540Z,10.60
2019-04-27T01:36:59.585Z,10.60
2019-04-27T01:39:29.232Z,10.60
2019-04-27T01:41:59.129Z,10.60
2019-04-27T01:44:29.556Z,10.60
2019-04-27T01:46:59.947Z,10.60
2019-04-27T01:49:30.110Z,10.60
2019-04-27T01:51:59.733Z,10.60
2019-04-27T01:54:30.064Z,10.60
2019-04-27T01:57:01.013Z,10.70
2019-04-27T01:59:30.756Z,10.70
2019-04-27T02:02:19.094Z,10.60
2019-04-27T02:05:14.000Z,10.60
2019-04-27T02:07:44.504Z,10.60
2019-04-27T02:10:15.631Z,10.50
2019-04-27T02:12:45.463Z,10.40
2019-04-27T02:15:15.357Z,10.50
2019-04-27T02:17:44.994Z,10.60
2019-04-27T02:20:14.783Z,10.50
2019-04-27T02:22:44.358Z,10.40
2019-04-27T02:25:14.035Z,10.50
2019-04-27T02:27:45.704Z,10.40
2019-04-27T02:30:33.664Z,10.40
2019-04-27T02:33:40.589Z,10.40
2019-04-27T02:36:14.761Z,10.40
2019-04-27T02:38:41.743Z,10.40
2019-04-27T02:41:11.411Z,10.40
2019-04-27T02:43:51.919Z,10.40
2019-04-27T02:46:23.541Z,10.40
2019-04-27T02:49:00.170Z,10.50
2019-04-27T02:51:42.831Z,10.50
2019-04-27T02:54:12.855Z,10.40
2019-04-27T02:56:42.405Z,10.30
2019-04-27T02:59:12.507Z,10.20
2019-04-27T03:01:52.899Z,10.20
2019-04-27T03:04:20.477Z,10.20
2019-04-27T03:06:50.242Z,10.20
2019-04-27T03:09:20.593Z,10.20
2019-04-27T03:11:50.338Z,10.20
2019-04-27T03:14:50.386Z,10.20
2019-04-27T03:17:39.319Z,10.20
2019-04-27T03:20:30.563Z,10.30
2019-04-27T03:23:03.335Z,10.30
2019-04-27T03:25:54.984Z,10.20
2019-04-27T03:28:24.579Z,10.20
2019-04-27T03:30:54.148Z,10.20
2019-04-27T03:33:23.700Z,10.20
2019-04-27T03:35:53.517Z,10.10
2019-04-27T03:38:23.295Z,10.10
2019-04-27T03:40:53.319Z,10.10
2019-04-27T03:43:24.961Z,10.10
2019-04-27T03:45:55.082Z,10.20
2019-04-27T03:48:24.743Z,10.20
2019-04-27T03:51:22.025Z,10.20
2019-04-27T03:54:22.645Z,10.10
2019-04-27T03:56:55.975Z,10.00
2019-04-27T03:59:44.462Z,10.00
2019-04-27T04:02:14.019Z,9.90
2019-04-27T04:04:43.576Z,10.00
2019-04-27T04:07:16.463Z,10.00
2019-04-27T04:09:46.116Z,10.00
2019-04-27T04:12:14.656Z,10.00
2019-04-27T04:14:44.240Z,9.90
2019-04-27T04:17:15.957Z,10.00
2019-04-27T04:19:54.281Z,10.00
2019-04-27T04:22:16.724Z,10.00
2019-04-27T04:24:46.267Z,10.10
2019-04-27T04:27:15.843Z,10.10
2019-04-27T04:29:45.837Z,9.90
2019-04-27T04:32:15.589Z,9.70
2019-04-27T04:34:45.151Z,9.70
2019-04-27T04:37:14.683Z,9.60
2019-04-27T04:39:44.239Z,9.60
2019-04-27T04:42:35.753Z,9.50
2019-04-27T04:45:22.247Z,9.50
2019-04-27T04:48:03.688Z,9.60
2019-04-27T04:50:33.227Z,9.70
2019-04-27T04:53:02.759Z,9.70
2019-04-27T04:55:32.313Z,9.70
2019-04-27T04:58:01.859Z,9.60
2019-04-27T05:00:31.426Z,9.70
2019-04-27T05:03:00.987Z,9.70
2019-04-27T05:05:30.527Z,9.70
2019-04-27T05:08:00.762Z,9.70
2019-04-27T05:10:31.242Z,9.70
2019-04-27T05:13:01.026Z,9.60
2019-04-27T05:15:30.567Z,9.60
2019-04-27T05:18:00.155Z,9.60
2019-04-27T05:20:51.412Z,9.50
2019-04-27T05:23:22.166Z,9.40
2019-04-27T05:25:51.808Z,9.50
2019-04-27T05:28:21.775Z,9.60
2019-04-27T05:30:51.471Z,9.70
2019-04-27T05:33:21.399Z,9.70
2019-04-27T05:35:51.012Z,9.60
2019-04-27T05:38:20.583Z,9.60
2019-04-27T05:40:51.326Z,9.60
2019-04-27T05:43:31.759Z,9.60
2019-04-27T05:46:51.167Z,9.60
2019-04-27T05:49:29.496Z,9.60
2019-04-27T05:51:59.506Z,9.60
2019-04-27T05:54:29.491Z,9.70
2019-04-27T05:56:59.324Z,9.70
2019-04-27T05:59:29.801Z,9.70
2019-04-27T06:01:59.542Z,9.70
2019-04-27T06:04:29.218Z,9.80
2019-04-27T06:07:00.948Z,9.90
2019-04-27T06:11:59.155Z,9.90
2019-04-27T06:14:29.349Z,9.90
2019-04-27T06:16:59.650Z,9.90
2019-04-27T06:19:29.389Z,10.00
2019-04-27T06:21:59.443Z,10.10
2019-04-27T06:24:30.111Z,10.10
2019-04-27T06:26:59.850Z,10.20
2019-04-27T06:29:29.478Z,10.20
2019-04-27T06:31:59.456Z,10.30
2019-04-27T06:34:30.960Z,10.30
2019-04-27T06:37:03.511Z,10.30
2019-04-27T06:39:33.159Z,10.30
2019-04-27T06:42:10.242Z,10.40
2019-04-27T06:44:34.171Z,10.40
2019-04-27T06:47:04.003Z,10.40
2019-04-27T06:49:33.668Z,10.20
2019-04-27T06:52:03.455Z,10.20
2019-04-27T06:54:33.131Z,10.20
2019-04-27T06:57:02.846Z,10.10
2019-04-27T06:59:32.535Z,10.10
2019-04-27T07:02:02.381Z,10.10
2019-04-27T07:04:32.027Z,10.10
2019-04-27T07:07:01.839Z,10.20
2019-04-27T07:09:31.459Z,10.20
2019-04-27T07:14:29.623Z,10.10
2019-04-27T07:16:59.652Z,10.10
2019-04-27T07:19:30.220Z,10.10
2019-04-27T07:22:01.964Z,10.10
2019-04-27T07:24:31.685Z,10.10
2019-04-27T07:27:02.440Z,10.10
2019-04-27T07:29:32.164Z,10.20
2019-04-27T07:32:01.822Z,10.30
2019-04-27T07:34:34.439Z,10.40
2019-04-27T07:37:05.282Z,10.50
2019-04-27T07:39:35.147Z,10.50
2019-04-27T07:42:04.877Z,10.60
2019-04-27T07:44:42.453Z,10.70
2019-04-27T07:47:20.298Z,10.70
2019-04-27T07:49:51.999Z,10.80
2019-04-27T07:52:21.530Z,10.90
2019-04-27T07:54:51.135Z,10.90
2019-04-27T07:59:50.487Z,11.00
2019-04-27T08:02:20.379Z,10.90
2019-04-27T08:04:50.471Z,10.90
2019-04-27T08:07:20.318Z,11.00
2019-04-27T08:09:50.492Z,11.00
2019-04-27T08:12:20.941Z,11.00
2019-04-27T08:14:50.638Z,11.10
2019-04-27T08:17:20.190Z,11.10
2019-04-27T08:19:49.792Z,11.20
2019-04-27T08:22:19.671Z,11.10
2019-04-27T08:24:49.745Z,10.90
2019-04-27T08:27:33.754Z,11.00
2019-04-27T08:30:31.062Z,11.10
2019-04-27T08:33:01.519Z,11.10
2019-04-27T08:35:32.716Z,11.20
2019-04-27T08:38:02.335Z,11.20
2019-04-27T08:40:32.007Z,11.30
2019-04-27T08:43:01.816Z,11.40
2019-04-27T08:45:31.787Z,11.40
2019-04-27T08:48:01.688Z,11.40
2019-04-27T08:50:33.183Z,11.40
2019-04-27T08:53:03.147Z,11.50
2019-04-27T08:55:32.843Z,11.50
2019-04-27T08:58:02.753Z,11.40
2019-04-27T09:00:32.680Z,11.30
2019-04-27T09:03:02.223Z,11.30
2019-04-27T09:05:31.892Z,11.20
2019-04-27T09:08:29.608Z,11.20
2019-04-27T09:11:18.667Z,11.00
2019-04-27T09:13:58.970Z,10.90
2019-04-27T09:17:00.143Z,11.00
2019-04-27T09:19:35.473Z,10.90
2019-04-27T09:22:16.007Z,11.00
2019-04-27T09:24:40.264Z,11.00
2019-04-27T09:27:10.856Z,10.90
2019-04-27T09:29:40.508Z,10.90
2019-04-27T09:32:10.329Z,10.90
2019-04-27T09:34:39.952Z,10.90
2019-04-27T09:37:11.208Z,10.90
2019-04-27T09:39:42.724Z,11.00
2019-04-27T09:42:12.495Z,11.00
2019-04-27T09:44:42.199Z,11.00
2019-04-27T09:47:10.995Z,11.10
2019-04-27T09:49:40.889Z,11.20
2019-04-27T09:52:23.365Z,11.20
2019-04-27T09:54:42.081Z,11.10
2019-04-27T09:57:13.668Z,11.10
2019-04-27T09:59:43.275Z,11.20
2019-04-27T10:02:12.838Z,11.20
2019-04-27T10:04:42.439Z,11.30
2019-04-27T10:07:12.295Z,11.30
2019-04-27T10:09:41.966Z,11.40
2019-04-27T10:12:11.531Z,11.40
2019-04-27T10:14:41.148Z,11.40
2019-04-27T10:17:10.806Z,11.30
2019-04-27T10:19:40.356Z,11.30
2019-04-27T10:22:09.994Z,11.30
2019-04-27T10:24:39.541Z,11.40
2019-04-27T10:27:09.103Z,11.50
2019-04-27T10:29:38.700Z,11.50
2019-04-27T10:32:10.056Z,11.40
2019-04-27T10:34:44.271Z,11.50
2019-04-27T10:37:15.933Z,11.60
2019-04-27T10:39:46.029Z,11.70
2019-04-27T10:42:15.999Z,11.90
2019-04-27T10:44:46.210Z,12.00
2019-04-27T10:47:16.559Z,12.00
2019-04-27T10:49:48.283Z,12.10
2019-04-27T10:52:17.682Z,12.00
2019-04-27T10:54:47.425Z,11.80
2019-04-27T10:57:17.283Z,11.80
2019-04-27T10:59:46.867Z,11.70
2019-04-27T11:02:19.851Z,11.70
2019-04-27T11:05:06.807Z,11.70
2019-04-27T11:07:39.835Z,11.70
2019-04-27T11:10:10.227Z,11.80
2019-04-27T11:12:40.064Z,11.70
2019-04-27T11:15:10.119Z,11.70
2019-04-27T11:17:39.915Z,11.70
2019-04-27T11:20:11.028Z,11.70
2019-04-27T11:22:40.944Z,11.70
2019-04-27T11:25:11.376Z,11.70
2019-04-27T11:27:40.995Z,11.80
2019-04-27T11:30:11.506Z,11.90
2019-04-27T11:32:41.268Z,12.00
2019-04-27T11:35:36.170Z,12.10
2019-04-27T11:38:06.523Z,12.20
2019-04-27T11:40:38.374Z,12.30
2019-04-27T11:43:08.738Z,12.40
2019-04-27T11:45:38.463Z,12.40
2019-04-27T11:48:08.244Z,12.40
2019-04-27T11:50:38.016Z,12.40
2019-04-27T11:53:19.912Z,12.40
2019-04-27T11:55:41.034Z,12.40
2019-04-27T11:58:10.759Z,12.30
2019-04-27T12:00:40.478Z,12.30
2019-04-27T12:03:11.947Z,12.30
2019-04-27T12:05:41.704Z,12.30
2019-04-27T12:08:11.539Z,12.30
2019-04-27T12:10:41.310Z,12.30
2019-04-27T12:13:11.193Z,12.30
2019-04-27T12:15:40.908Z,12.40
2019-04-27T12:18:10.683Z,12.40
2019-04-27T12:20:40.266Z,12.40
2019-04-27T12:23:10.003Z,12.40
2019-04-27T12:25:39.779Z,12.40
2019-04-27T12:28:28.214Z,12.40
2019-04-27T12:31:04.067Z,12.50
2019-04-27T12:33:37.404Z,12.80
2019-04-27T12:36:07.545Z,13.40
2019-04-27T12:38:38.734Z,13.90
2019-04-27T12:41:10.283Z,14.30
2019-04-27T12:43:40.077Z,14.50
2019-04-27T12:46:09.958Z,14.60
2019-04-27T12:48:39.539Z,14.70
2019-04-27T12:51:09.303Z,14.70
2019-04-27T12:53:53.683Z,14.70
2019-04-27T12:56:49.103Z,14.70
2019-04-27T12:59:36.634Z,14.70
2019-04-27T13:02:07.024Z,14.70
2019-04-27T13:04:38.304Z,14.60
2019-04-27T13:07:07.984Z,15.00
2019-04-27T13:09:39.841Z,15.50
2019-04-27T13:12:09.075Z,16.10
2019-04-27T13:14:40.099Z,16.60
2019-04-27T13:17:09.803Z,16.90
2019-04-27T13:19:39.354Z,16.80
2019-04-27T13:22:08.909Z,16.30
2019-04-27T13:24:38.630Z,16.20
2019-04-27T13:27:08.180Z,16.20
2019-04-27T13:29:37.849Z,16.40
2019-04-27T13:32:07.541Z,16.70
2019-04-27T13:34:38.269Z,17.00
2019-04-27T13:37:27.065Z,17.10
2019-04-27T13:40:06.374Z,17.20
2019-04-27T13:42:29.515Z,17.70
2019-04-27T13:45:01.031Z,17.90
2019-04-27T13:47:52.362Z,18.00
2019-04-27T13:50:37.926Z,18.50
2019-04-27T13:53:08.463Z,18.90
2019-04-27T13:55:38.142Z,18.90
2019-04-27T13:58:09.073Z,18.50
2019-04-27T14:00:38.861Z,18.70
2019-04-27T14:03:08.798Z,18.60
2019-04-27T14:05:38.371Z,18.50
2019-04-27T14:08:09.167Z,18.90
2019-04-27T14:10:38.999Z,19.00
2019-04-27T14:13:10.904Z,19.00
2019-04-27T14:15:42.451Z,18.80
2019-04-27T14:18:12.151Z,18.30
2019-04-27T14:20:48.662Z,18.10
2019-04-27T14:23:20.311Z,17.70
2019-04-27T14:25:51.948Z,17.30
2019-04-27T14:28:21.510Z,17.10
2019-04-27T14:30:51.080Z,16.70
2019-04-27T14:33:21.031Z,16.70
2019-04-27T14:35:50.775Z,16.40
2019-04-27T14:38:20.421Z,16.00
2019-04-27T14:40:51.771Z,15.80
2019-04-27T14:43:21.752Z,15.70
2019-04-27T14:45:51.630Z,15.60
2019-04-27T14:48:21.366Z,15.60
2019-04-27T14:50:51.071Z,15.50
2019-04-27T14:53:20.852Z,15.50
2019-04-27T14:55:50.714Z,15.60
2019-04-27T14:58:22.111Z,15.60
2019-04-27T15:00:51.715Z,15.70
2019-04-27T15:03:21.440Z,15.90
2019-04-27T15:05:53.737Z,16.20
2019-04-27T15:08:22.613Z,16.40
2019-04-27T15:10:53.816Z,16.60
2019-04-27T15:13:23.401Z,17.00
2019-04-27T15:15:52.951Z,17.70
2019-04-27T15:18:24.477Z,18.60
2019-04-27T15:20:54.296Z,19.30
2019-04-27T15:23:26.631Z,20.00
2019-04-27T15:25:55.519Z,20.30
2019-04-27T15:28:29.150Z,20.40
2019-04-27T15:31:26.441Z,20.10
2019-04-27T15:34:14.122Z,19.80
2019-04-27T15:36:56.765Z,19.30
2019-04-27T15:39:43.043Z,19.40
2019-04-27T15:42:16.787Z,19.30
2019-04-27T15:44:47.668Z,19.90
2019-04-27T15:47:20.272Z,20.10
2019-04-27T15:49:54.436Z,20.90
2019-04-27T15:52:25.411Z,21.90
2019-04-27T15:54:52.924Z,22.70
2019-04-27T15:57:22.731Z,22.50
2019-04-27T15:59:52.315Z,23.00
2019-04-27T16:02:21.879Z,24.40
2019-04-27T16:04:53.365Z,25.10
2019-04-27T16:07:25.308Z,25.30
2019-04-27T16:09:58.600Z,25.00
2019-04-27T16:12:28.429Z,25.50
2019-04-27T16:14:58.221Z,26.10
2019-04-27T16:17:29.382Z,26.20
2019-04-27T16:19:59.448Z,25.50
2019-04-27T16:22:29.271Z,24.60
2019-04-27T16:24:58.870Z,24.40
2019-04-27T16:27:33.715Z,25.30
2019-04-27T16:30:04.694Z,26.70
2019-04-27T16:32:30.847Z,26.60
2019-04-27T16:35:01.533Z,25.40
2019-04-27T16:37:58.105Z,24.30
2019-04-27T16:40:30.116Z,23.70
2019-04-27T16:43:00.095Z,23.90
2019-04-27T16:45:29.878Z,22.70
2019-04-27T16:48:02.093Z,21.70
2019-04-27T16:50:31.909Z,20.70
2019-04-27T16:53:03.211Z,19.80
2019-04-27T16:55:35.388Z,18.90
2019-04-27T16:58:09.803Z,18.40
2019-04-27T17:00:38.714Z,18.00
2019-04-27T17:05:38.661Z,17.40
2019-04-27T17:08:14.239Z,17.10
2019-04-27T17:10:39.938Z,16.80
2019-04-27T17:13:14.319Z,16.50
2019-04-27T17:16:00.207Z,16.30
2019-04-27T17:18:38.604Z,16.30
2019-04-27T17:21:18.128Z,16.20
2019-04-27T17:23:39.953Z,16.20
2019-04-27T17:26:21.137Z,16.10
2019-04-27T17:28:52.059Z,16.00
2019-04-27T17:31:24.129Z,15.90
2019-04-27T17:34:00.541Z,15.90
2019-04-27T17:36:30.254Z,15.90
2019-04-27T17:38:59.813Z,15.80
2019-04-27T17:41:29.375Z,15.70
2019-04-27T17:44:00.613Z,15.60
2019-04-27T17:46:30.168Z,15.50
2019-04-27T17:49:03.818Z,15.40
2019-04-27T17:51:40.676Z,15.30
2019-04-27T17:54:11.243Z,15.20
2019-04-27T17:56:48.284Z,15.10
2019-04-27T17:59:16.726Z,15.00
2019-04-27T18:01:45.428Z,15.00
2019-04-27T18:04:15.052Z,14.90
2019-04-27T18:06:44.692Z,14.80
2019-04-27T18:09:18.744Z,14.70
2019-04-27T18:11:50.358Z,14.60
2019-04-27T18:14:19.930Z,14.60
2019-04-27T18:16:49.521Z,14.50
2019-04-27T18:19:24.395Z,14.40
2019-04-27T18:22:01.314Z,14.30
2019-04-27T18:24:45.147Z,14.20
2019-04-27T18:27:33.713Z,14.20
2019-04-27T18:30:19.067Z,14.00
2019-04-27T18:32:49.080Z,14.00
2019-04-27T18:35:20.054Z,13.90
2019-04-27T18:37:53.555Z,13.90
2019-04-27T18:40:23.764Z,13.80
2019-04-27T18:42:52.274Z,13.70
2019-04-27T18:45:21.974Z,13.70
2019-04-27T18:47:59.302Z,13.60
2019-04-27T18:50:51.950Z,13.50
2019-04-27T18:53:24.350Z,13.50
2019-04-27T18:55:57.604Z,13.40
2019-04-27T18:58:24.107Z,13.30
2019-04-27T19:00:53.644Z,13.30
2019-04-27T19:03:23.387Z,13.20
2019-04-27T19:05:52.946Z,13.10
2019-04-27T19:08:23.655Z,13.10
2019-04-27T19:10:53.236Z,13.00
2019-04-27T19:13:22.791Z,12.90
2019-04-27T19:15:59.983Z,12.90
2019-04-27T19:18:29.656Z,12.90
2019-04-27T19:20:59.344Z,12.90
2019-04-27T19:23:29.973Z,12.90
2019-04-27T19:26:21.172Z,13.00
2019-04-27T19:29:01.751Z,12.90
2019-04-27T19:31:34.467Z,12.90
2019-04-27T19:34:04.271Z,12.90
2019-04-27T19:36:33.956Z,12.80
2019-04-27T19:39:04.709Z,12.80
2019-04-27T19:41:34.391Z,12.80
2019-04-27T19:44:04.115Z,12.90
2019-04-27T19:46:33.832Z,12.90
2019-04-27T19:49:04.547Z,12.80
2019-04-27T19:51:34.240Z,12.90
2019-04-27T19:54:03.939Z,12.70
2019-04-27T19:56:33.720Z,12.70
2019-04-27T19:59:08.827Z,12.60
2019-04-27T20:01:41.977Z,12.50
2019-04-27T20:04:36.495Z,12.50
2019-04-27T20:07:06.261Z,12.40
2019-04-27T20:09:45.349Z,12.40
2019-04-27T20:12:15.054Z,12.40
2019-04-27T20:14:56.897Z,12.40
2019-04-27T20:17:31.619Z,12.40
2019-04-27T20:20:02.008Z,12.40
2019-04-27T20:22:31.867Z,12.30
2019-04-27T20:25:02.105Z,12.30
2019-04-27T20:27:45.278Z,12.20
2019-04-27T20:30:03.463Z,12.20
2019-04-27T20:32:33.113Z,12.20
2019-04-27T20:35:02.714Z,12.20
2019-04-27T20:37:32.305Z,12.20
2019-04-27T20:40:02.110Z,12.20
2019-04-27T20:42:31.799Z,12.20
2019-04-27T20:45:02.181Z,12.10
2019-04-27T20:47:33.000Z,12.10
2019-04-27T20:50:02.787Z,12.10
2019-04-27T20:52:53.204Z,12.10
2019-04-27T20:55:23.294Z,12.10
2019-04-27T20:58:01.660Z,12.10
2019-04-27T21:00:24.935Z,12.10
2019-04-27T21:03:02.043Z,12.10
2019-04-27T21:05:56.822Z,12.00
2019-04-27T21:08:26.643Z,12.00
2019-04-27T21:10:56.288Z,11.90
2019-04-27T21:13:26.036Z,11.90
2019-04-27T21:15:55.723Z,11.90
2019-04-27T21:18:25.428Z,11.90
2019-04-27T21:20:55.165Z,11.80
2019-04-27T21:23:24.880Z,11.80
2019-04-27T21:25:54.464Z,11.80
2019-04-27T21:28:24.213Z,11.80
2019-04-27T21:30:53.955Z,11.80
2019-04-27T21:33:23.691Z,11.70
2019-04-27T21:35:53.279Z,11.60
2019-04-27T21:38:22.906Z,11.40
2019-04-27T21:40:52.615Z,11.20
2019-04-27T21:43:22.360Z,11.00
2019-04-27T21:45:52.152Z,11.00
2019-04-27T21:48:21.735Z,11.10
2019-04-27T21:50:51.822Z,11.10
2019-04-27T21:53:36.533Z,11.00
2019-04-27T21:56:08.319Z,11.00
2019-04-27T21:58:37.991Z,10.90
2019-04-27T22:01:29.274Z,10.80
2019-04-27T22:04:00.890Z,10.80
2019-04-27T22:06:30.371Z,10.80
2019-04-27T22:09:01.343Z,10.70
2019-04-27T22:11:31.940Z,10.60
2019-04-27T22:14:01.847Z,10.50
2019-04-27T22:16:31.617Z,10.40
2019-04-27T22:19:02.020Z,10.40
2019-04-27T22:21:31.930Z,10.40
2019-04-27T22:24:11.183Z,10.40
2019-04-27T22:26:41.503Z,10.40
2019-04-27T22:29:12.037Z,10.40
2019-04-27T22:31:41.963Z,10.40
2019-04-27T22:34:11.650Z,10.50
2019-04-27T22:36:41.637Z,10.50
2019-04-27T22:39:28.599Z,10.50
2019-04-27T22:42:20.684Z,10.50
2019-04-27T22:45:01.269Z,10.50
2019-04-27T22:47:31.795Z,10.50
2019-04-27T22:50:01.683Z,10.40
2019-04-27T22:52:32.307Z,10.40
2019-04-27T22:55:01.936Z,10.30
2019-04-27T22:57:48.047Z,10.30
2019-04-27T23:00:35.504Z,10.20
2019-04-27T23:03:08.603Z,10.20
2019-04-27T23:05:38.174Z,10.20
2019-04-27T23:08:07.795Z,10.10
2019-04-27T23:10:37.520Z,10.00
2019-04-27T23:13:07.163Z,9.90
2019-04-27T23:15:41.739Z,9.80
2019-04-27T23:18:11.308Z,9.70
2019-04-27T23:20:42.478Z,9.60
2019-04-27T23:23:12.503Z,9.60
2019-04-27T23:25:42.709Z,9.60
2019-04-27T23:28:12.708Z,9.50
2019-04-27T23:30:49.302Z,9.50
2019-04-27T23:33:18.865Z,9.40
2019-04-27T23:35:48.588Z,9.40
2019-04-27T23:38:18.329Z,9.30
2019-04-27T23:40:48.027Z,9.30
2019-04-27T23:43:17.708Z,9.30
2019-04-27T23:45:47.455Z,9.20
2019-04-27T23:48:17.176Z,9.20
2019-04-27T23:50:48.453Z,9.10
2019-04-27T23:53:21.882Z,9.10
2019-04-27T23:55:51.737Z,9.10
2019-04-27T23:58:21.324Z,9.00
